sensor_id;sensor_type;location;lat;lon;timestamp;pressure;altitude;pressure_sealevel;temperature;humidity
48517;BME280;34310;51.904;4.256;2024-03-02T00:01:20;99806.06;;;15.02;61.78
48517;BME280;34310;51.904;4.256;2024-03-02T00:03:47;99807.72;;;15.00;61.96
48517;BME280;34310;51.904;4.256;2024-03-02T00:06:13;99812.97;;;15.01;61.77
48517;BME280;34310;51.904;4.256;2024-03-02T00:08:40;99812.84;;;14.98;61.69
48517;BME280;34310;51.904;4.256;2024-03-02T00:11:07;99824.97;;;14.98;61.82
48517;BME280;34310;51.904;4.256;2024-03-02T00:13:34;99825.78;;;14.97;61.90
48517;BME280;34310;51.904;4.256;2024-03-02T00:16:01;99826.56;;;14.94;61.78
48517;BME280;34310;51.904;4.256;2024-03-02T00:18:32;99836.09;;;14.94;62.01
48517;BME280;34310;51.904;4.256;2024-03-02T00:20:59;99830.81;;;14.92;61.98
48517;BME280;34310;51.904;4.256;2024-03-02T00:23:30;99830.81;;;14.92;62.09
48517;BME280;34310;51.904;4.256;2024-03-02T00:25:57;99832.59;;;14.93;61.95
48517;BME280;34310;51.904;4.256;2024-03-02T00:28:24;99843.81;;;14.92;61.80
48517;BME280;34310;51.904;4.256;2024-03-02T00:33:19;99836.81;;;14.90;62.02
48517;BME280;34310;51.904;4.256;2024-03-02T00:35:55;99832.44;;;14.88;62.03
48517;BME280;34310;51.904;4.256;2024-03-02T00:38:22;99841.06;;;14.87;61.99
48517;BME280;34310;51.904;4.256;2024-03-02T00:40:51;99835.81;;;14.86;62.15
48517;BME280;34310;51.904;4.256;2024-03-02T00:43:57;99845.25;;;14.84;62.21
48517;BME280;34310;51.904;4.256;2024-03-02T00:46:24;99839.22;;;14.85;62.03
48517;BME280;34310;51.904;4.256;2024-03-02T00:48:52;99833.16;;;14.84;62.14
48517;BME280;34310;51.904;4.256;2024-03-02T00:51:19;99819.22;;;14.82;62.08
48517;BME280;34310;51.904;4.256;2024-03-02T00:53:47;99811.38;;;14.81;62.12
48517;BME280;34310;51.904;4.256;2024-03-02T00:56:14;99820.88;;;14.80;62.24
48517;BME280;34310;51.904;4.256;2024-03-02T00:58:40;99828.66;;;14.80;62.26
48517;BME280;34310;51.904;4.256;2024-03-02T01:01:07;99827.72;;;14.78;62.21
48517;BME280;34310;51.904;4.256;2024-03-02T01:03:34;99825.97;;;14.77;62.27
48517;BME280;34310;51.904;4.256;2024-03-02T01:06:11;99816.41;;;14.76;62.17
48517;BME280;34310;51.904;4.256;2024-03-02T01:08:38;99807.63;;;14.74;62.22
48517;BME280;34310;51.904;4.256;2024-03-02T01:11:05;99820.63;;;14.74;62.24
48517;BME280;34310;51.904;4.256;2024-03-02T01:13:32;99829.25;;;14.73;62.36
48517;BME280;34310;51.904;4.256;2024-03-02T01:15:58;99837.03;;;14.73;62.31
48517;BME280;34310;51.904;4.256;2024-03-02T01:18:25;99854.34;;;14.73;62.28
48517;BME280;34310;51.904;4.256;2024-03-02T01:20:52;99848.16;;;14.69;62.31
48517;BME280;34310;51.904;4.256;2024-03-02T01:23:19;99857.72;;;14.70;62.50
48517;BME280;34310;51.904;4.256;2024-03-02T01:25:46;99863.72;;;14.69;62.28
48517;BME280;34310;51.904;4.256;2024-03-02T01:28:14;99863.63;;;14.66;62.52
48517;BME280;34310;51.904;4.256;2024-03-02T01:30:41;99865.38;;;14.67;62.51
48517;BME280;34310;51.904;4.256;2024-03-02T01:33:08;99864.50;;;14.67;62.41
48517;BME280;34310;51.904;4.256;2024-03-02T01:35:34;99854.94;;;14.66;62.48
48517;BME280;34310;51.904;4.256;2024-03-02T01:38:01;99851.34;;;14.62;62.51
48517;BME280;34310;51.904;4.256;2024-03-02T01:40:28;99855.72;;;14.63;62.37
48517;BME280;34310;51.904;4.256;2024-03-02T01:42:55;99853.94;;;14.62;62.41
48517;BME280;34310;51.904;4.256;2024-03-02T01:45:21;99859.13;;;14.62;62.44
48517;BME280;34310;51.904;4.256;2024-03-02T01:47:48;99862.56;;;14.61;62.60
48517;BME280;34310;51.904;4.256;2024-03-02T01:50:15;99865.97;;;14.60;62.52
48517;BME280;34310;51.904;4.256;2024-03-02T01:52:41;99865.97;;;14.60;62.58
48517;BME280;34310;51.904;4.256;2024-03-02T01:55:08;99869.34;;;14.57;62.65
48517;BME280;34310;51.904;4.256;2024-03-02T01:57:35;99866.75;;;14.57;62.65
48517;BME280;34310;51.904;4.256;2024-03-02T02:00:04;99860.66;;;14.57;62.61
48517;BME280;34310;51.904;4.256;2024-03-02T02:02:31;99868.47;;;14.57;62.57
48517;BME280;34310;51.904;4.256;2024-03-02T02:04:58;99860.63;;;14.55;62.61
48517;BME280;34310;51.904;4.256;2024-03-02T02:07:25;99864.88;;;14.53;62.72
48517;BME280;34310;51.904;4.256;2024-03-02T02:09:51;99861.44;;;14.54;62.75
48517;BME280;34310;51.904;4.256;2024-03-02T02:12:18;99870.06;;;14.53;62.77
48517;BME280;34310;51.904;4.256;2024-03-02T02:14:48;99871.78;;;14.53;62.60
48517;BME280;34310;51.904;4.256;2024-03-02T02:17:16;99867.41;;;14.52;62.78
48517;BME280;34310;51.904;4.256;2024-03-02T02:19:46;99870.81;;;14.51;62.66
48517;BME280;34310;51.904;4.256;2024-03-02T02:22:13;99869.06;;;14.50;62.74
48517;BME280;34310;51.904;4.256;2024-03-02T02:24:40;99870.72;;;14.48;62.57
48517;BME280;34310;51.904;4.256;2024-03-02T02:27:08;99869.81;;;14.47;62.70
48517;BME280;34310;51.904;4.256;2024-03-02T02:29:34;99875.00;;;14.47;62.71
48517;BME280;34310;51.904;4.256;2024-03-02T02:32:01;99865.38;;;14.45;62.79
48517;BME280;34310;51.904;4.256;2024-03-02T02:34:28;99873.16;;;14.45;62.79
48517;BME280;34310;51.904;4.256;2024-03-02T02:36:55;99877.47;;;14.44;62.72
48517;BME280;34310;51.904;4.256;2024-03-02T02:39:22;99874.81;;;14.43;62.84
48517;BME280;34310;51.904;4.256;2024-03-02T02:41:49;99870.34;;;14.40;62.86
48517;BME280;34310;51.904;4.256;2024-03-02T02:44:15;99872.13;;;14.41;62.88
48517;BME280;34310;51.904;4.256;2024-03-02T02:46:42;99872.06;;;14.40;62.86
48517;BME280;34310;51.904;4.256;2024-03-02T02:49:13;99865.03;;;14.37;62.76
48517;BME280;34310;51.904;4.256;2024-03-02T02:51:40;99864.16;;;14.37;62.83
48517;BME280;34310;51.904;4.256;2024-03-02T02:54:09;99862.38;;;14.36;62.94
48517;BME280;34310;51.904;4.256;2024-03-02T02:56:36;99866.03;;;14.41;62.85
48517;BME280;34310;51.904;4.256;2024-03-02T02:59:09;99869.94;;;14.50;62.87
48517;BME280;34310;51.904;4.256;2024-03-02T03:01:35;99872.41;;;14.70;62.39
48517;BME280;34310;51.904;4.256;2024-03-02T03:04:02;99877.13;;;15.02;61.77
48517;BME280;34310;51.904;4.256;2024-03-02T03:06:36;99871.53;;;15.38;60.79
48517;BME280;34310;51.904;4.256;2024-03-02T03:09:03;99867.22;;;15.62;60.39
48517;BME280;34310;51.904;4.256;2024-03-02T03:11:29;99874.09;;;15.86;59.73
48517;BME280;34310;51.904;4.256;2024-03-02T03:13:59;99883.31;;;16.01;59.20
48517;BME280;34310;51.904;4.256;2024-03-02T03:16:28;99876.88;;;16.17;58.75
48517;BME280;34310;51.904;4.256;2024-03-02T03:18:56;99877.31;;;16.29;58.49
48517;BME280;34310;51.904;4.256;2024-03-02T03:21:32;99868.06;;;16.39;58.25
48517;BME280;34310;51.904;4.256;2024-03-02T03:23:59;99870.84;;;16.45;57.92
48517;BME280;34310;51.904;4.256;2024-03-02T03:26:25;99874.56;;;16.52;57.97
48517;BME280;34310;51.904;4.256;2024-03-02T03:28:52;99869.47;;;16.56;57.57
48517;BME280;34310;51.904;4.256;2024-03-02T03:31:18;99869.47;;;16.56;57.74
48517;BME280;34310;51.904;4.256;2024-03-02T03:33:45;99880.97;;;16.63;57.71
48517;BME280;34310;51.904;4.256;2024-03-02T03:36:12;99884.47;;;16.63;57.65
48517;BME280;34310;51.904;4.256;2024-03-02T03:38:38;99874.09;;;16.65;57.34
48517;BME280;34310;51.904;4.256;2024-03-02T03:41:05;99875.88;;;16.66;57.68
48517;BME280;34310;51.904;4.256;2024-03-02T03:43:31;99865.47;;;16.66;57.39
48517;BME280;34310;51.904;4.256;2024-03-02T03:45:58;99873.28;;;16.66;57.35
48517;BME280;34310;51.904;4.256;2024-03-02T03:48:24;99874.16;;;16.66;57.38
48517;BME280;34310;51.904;4.256;2024-03-02T03:50:51;99874.09;;;16.65;57.45
48517;BME280;34310;51.904;4.256;2024-03-02T03:53:17;99873.22;;;16.64;57.34
48517;BME280;34310;51.904;4.256;2024-03-02T03:55:44;99875.81;;;16.64;57.45
48517;BME280;34310;51.904;4.256;2024-03-02T03:58:18;99881.81;;;16.62;57.77
48517;BME280;34310;51.904;4.256;2024-03-02T04:00:49;99880.94;;;16.61;57.44
48517;BME280;34310;51.904;4.256;2024-03-02T04:03:16;99881.78;;;16.60;57.45
48517;BME280;34310;51.904;4.256;2024-03-02T04:05:44;99886.09;;;16.60;57.49
48517;BME280;34310;51.904;4.256;2024-03-02T04:08:11;99889.59;;;16.60;57.24
48517;BME280;34310;51.904;4.256;2024-03-02T04:10:37;99887.78;;;16.58;57.26
48517;BME280;34310;51.904;4.256;2024-03-02T04:13:04;99891.16;;;16.55;57.20
48517;BME280;34310;51.904;4.256;2024-03-02T04:15:31;99897.16;;;16.53;57.33
48517;BME280;34310;51.904;4.256;2024-03-02T04:17:57;99892.75;;;16.50;57.65
48517;BME280;34310;51.904;4.256;2024-03-02T04:20:24;99886.69;;;16.51;57.32
48517;BME280;34310;51.904;4.256;2024-03-02T04:22:50;99890.16;;;16.50;57.40
48517;BME280;34310;51.904;4.256;2024-03-02T04:25:17;99884.00;;;16.48;57.51
48517;BME280;34310;51.904;4.256;2024-03-02T04:27:43;99888.19;;;16.45;57.31
48517;BME280;34310;51.904;4.256;2024-03-02T04:30:10;99903.00;;;16.46;57.41
48517;BME280;34310;51.904;4.256;2024-03-02T04:32:37;99902.00;;;16.42;57.58
48517;BME280;34310;51.904;4.256;2024-03-02T04:35:04;99904.53;;;16.39;57.44
48517;BME280;34310;51.904;4.256;2024-03-02T04:37:34;99904.44;;;16.36;57.53
48517;BME280;34310;51.904;4.256;2024-03-02T04:40:00;99919.13;;;16.34;57.54
48517;BME280;34310;51.904;4.256;2024-03-02T04:42:27;99907.69;;;16.29;57.67
48517;BME280;34310;51.904;4.256;2024-03-02T04:44:54;99914.56;;;16.27;57.70
48517;BME280;34310;51.904;4.256;2024-03-02T04:47:20;99905.72;;;16.22;57.65
48517;BME280;34310;51.904;4.256;2024-03-02T04:49:47;99906.50;;;16.19;57.75
48517;BME280;34310;51.904;4.256;2024-03-02T04:52:13;99920.41;;;16.20;57.93
48517;BME280;34310;51.904;4.256;2024-03-02T04:54:40;99916.72;;;16.15;57.82
48517;BME280;34310;51.904;4.256;2024-03-02T04:57:06;99921.88;;;16.13;58.06
48517;BME280;34310;51.904;4.256;2024-03-02T04:59:33;99922.63;;;16.09;58.29
48517;BME280;34310;51.904;4.256;2024-03-02T05:01:59;99926.00;;;16.06;58.34
48517;BME280;34310;51.904;4.256;2024-03-02T05:04:26;99924.13;;;16.02;58.33
48517;BME280;34310;51.904;4.256;2024-03-02T05:06:52;99924.03;;;15.99;58.33
48517;BME280;34310;51.904;4.256;2024-03-02T05:09:26;99935.25;;;15.97;58.30
48517;BME280;34310;51.904;4.256;2024-03-02T05:11:56;99936.03;;;15.94;58.39
48517;BME280;34310;51.904;4.256;2024-03-02T05:14:23;99931.47;;;15.89;58.65
48517;BME280;34310;51.904;4.256;2024-03-02T05:16:50;99941.88;;;15.89;58.61
48517;BME280;34310;51.904;4.256;2024-03-02T05:19:16;99946.09;;;15.85;58.73
48517;BME280;34310;51.904;4.256;2024-03-02T05:21:43;99933.81;;;15.81;58.62
48517;BME280;34310;51.904;4.256;2024-03-02T05:24:09;99945.03;;;15.80;58.86
48517;BME280;34310;51.904;4.256;2024-03-02T05:26:36;99936.19;;;15.75;58.74
48517;BME280;34310;51.904;4.256;2024-03-02T05:29:02;99941.28;;;15.72;58.95
48517;BME280;34310;51.904;4.256;2024-03-02T05:31:29;99942.06;;;15.69;59.13
48517;BME280;34310;51.904;4.256;2024-03-02T05:33:56;99943.69;;;15.66;59.09
48517;BME280;34310;51.904;4.256;2024-03-02T05:36:27;99947.13;;;15.65;59.09
48517;BME280;34310;51.904;4.256;2024-03-02T05:38:54;99945.19;;;15.61;59.19
48517;BME280;34310;51.904;4.256;2024-03-02T05:41:22;99939.94;;;15.59;59.27
48517;BME280;34310;51.904;4.256;2024-03-02T05:43:48;99945.00;;;15.56;59.24
48517;BME280;34310;51.904;4.256;2024-03-02T05:46:15;99939.66;;;15.52;59.40
48517;BME280;34310;51.904;4.256;2024-03-02T05:48:41;99949.09;;;15.49;59.44
48517;BME280;34310;51.904;4.256;2024-03-02T05:51:08;99947.28;;;15.47;59.54
48517;BME280;34310;51.904;4.256;2024-03-02T05:53:34;99948.13;;;15.46;59.47
48517;BME280;34310;51.904;4.256;2024-03-02T05:56:01;99958.47;;;15.44;59.59
48517;BME280;34310;51.904;4.256;2024-03-02T05:58:31;99935.78;;;15.40;59.56
48517;BME280;34310;51.904;4.256;2024-03-02T06:00:58;99947.88;;;15.40;59.76
48517;BME280;34310;51.904;4.256;2024-03-02T06:03:24;99950.50;;;15.40;59.85
48517;BME280;34310;51.904;4.256;2024-03-02T06:05:51;99955.59;;;15.37;59.82
48517;BME280;34310;51.904;4.256;2024-03-02T06:08:18;99954.59;;;15.33;59.96
48517;BME280;34310;51.904;4.256;2024-03-02T06:10:44;99954.44;;;15.30;60.16
48517;BME280;34310;51.904;4.256;2024-03-02T06:13:11;99960.34;;;15.26;60.35
48517;BME280;34310;51.904;4.256;2024-03-02T06:15:37;99957.66;;;15.23;60.28
48517;BME280;34310;51.904;4.256;2024-03-02T06:18:04;99967.94;;;15.20;60.44
48517;BME280;34310;51.904;4.256;2024-03-02T06:20:31;99960.78;;;15.14;60.45
48517;BME280;34310;51.904;4.256;2024-03-02T06:23:05;99962.50;;;15.14;57.55
48517;BME280;34310;51.904;4.256;2024-03-02T06:25:31;99965.50;;;15.02;58.47
48517;BME280;34310;51.904;4.256;2024-03-02T06:27:58;99961.91;;;14.99;59.50
48517;BME280;34310;51.904;4.256;2024-03-02T06:30:24;99960.00;;;14.95;59.87
48517;BME280;34310;51.904;4.256;2024-03-02T06:32:51;99966.91;;;14.94;60.17
48517;BME280;34310;51.904;4.256;2024-03-02T06:35:18;99973.84;;;14.94;60.09
48517;BME280;34310;51.904;4.256;2024-03-02T06:37:44;99957.25;;;14.90;60.22
48517;BME280;34310;51.904;4.256;2024-03-02T06:40:11;99967.63;;;14.90;60.09
48517;BME280;34310;51.904;4.256;2024-03-02T06:42:37;99977.16;;;14.90;60.30
48517;BME280;34310;51.904;4.256;2024-03-02T06:45:06;99969.28;;;14.88;60.40
48517;BME280;34310;51.904;4.256;2024-03-02T06:47:32;99971.81;;;14.86;60.54
48517;BME280;34310;51.904;4.256;2024-03-02T06:49:59;99976.91;;;14.83;60.52
48517;BME280;34310;51.904;4.256;2024-03-02T06:52:26;99990.78;;;14.84;60.56
48517;BME280;34310;51.904;4.256;2024-03-02T06:54:52;99991.63;;;14.83;60.37
48517;BME280;34310;51.904;4.256;2024-03-02T06:57:19;99992.38;;;14.80;60.53
48517;BME280;34310;51.904;4.256;2024-03-02T06:59:46;100001.13;;;14.82;60.55
48517;BME280;34310;51.904;4.256;2024-03-02T07:02:12;99994.16;;;14.81;60.63
48517;BME280;34310;51.904;4.256;2024-03-02T07:04:39;100000.19;;;14.80;60.79
48517;BME280;34310;51.904;4.256;2024-03-02T07:07:06;100001.75;;;14.77;60.83
48517;BME280;34310;51.904;4.256;2024-03-02T07:09:32;99993.09;;;14.76;60.82
48517;BME280;34310;51.904;4.256;2024-03-02T07:11:59;100004.31;;;14.75;60.73
48517;BME280;34310;51.904;4.256;2024-03-02T07:14:26;99996.50;;;14.75;61.34
48517;BME280;34310;51.904;4.256;2024-03-02T07:16:52;100007.16;;;14.81;61.64
48517;BME280;34310;51.904;4.256;2024-03-02T07:19:20;99997.28;;;14.95;61.47
48517;BME280;34310;51.904;4.256;2024-03-02T07:21:47;100008.78;;;15.23;60.71
48517;BME280;34310;51.904;4.256;2024-03-02T07:24:14;100009.78;;;15.48;59.89
48517;BME280;34310;51.904;4.256;2024-03-02T07:26:41;100009.69;;;15.68;59.21
48517;BME280;34310;51.904;4.256;2024-03-02T07:29:10;100011.16;;;15.85;58.87
48517;BME280;34310;51.904;4.256;2024-03-02T07:31:37;100010.78;;;15.98;58.58
48517;BME280;34310;51.904;4.256;2024-03-02T07:34:06;100018.03;;;16.07;58.06
48517;BME280;34310;51.904;4.256;2024-03-02T07:36:43;100019.97;;;16.13;58.07
48517;BME280;34310;51.904;4.256;2024-03-02T07:39:12;100021.84;;;16.17;57.64
48517;BME280;34310;51.904;4.256;2024-03-02T07:41:39;100026.41;;;16.22;57.64
48517;BME280;34310;51.904;4.256;2024-03-02T07:44:06;100021.19;;;16.22;57.58
48517;BME280;34310;51.904;4.256;2024-03-02T07:46:35;100005.50;;;16.21;57.75
48517;BME280;34310;51.904;4.256;2024-03-02T07:49:02;100010.88;;;16.25;57.54
48517;BME280;34310;51.904;4.256;2024-03-02T07:51:28;100008.16;;;16.22;57.60
48517;BME280;34310;51.904;4.256;2024-03-02T07:53:55;100003.91;;;16.24;57.71
48517;BME280;34310;51.904;4.256;2024-03-02T07:56:22;100013.53;;;16.27;57.53
48517;BME280;34310;51.904;4.256;2024-03-02T07:58:49;100018.69;;;16.25;57.91
48517;BME280;34310;51.904;4.256;2024-03-02T08:01:15;100006.50;;;16.24;57.56
48517;BME280;34310;51.904;4.256;2024-03-02T08:03:43;100002.13;;;16.23;57.75
48517;BME280;34310;51.904;4.256;2024-03-02T08:06:09;100007.34;;;16.23;57.62
48517;BME280;34310;51.904;4.256;2024-03-02T08:08:36;100017.69;;;16.22;57.73
48517;BME280;34310;51.904;4.256;2024-03-02T08:11:03;100024.56;;;16.20;57.91
48517;BME280;34310;51.904;4.256;2024-03-02T08:13:29;100032.31;;;16.18;57.99
48517;BME280;34310;51.904;4.256;2024-03-02T08:15:57;100027.88;;;16.16;58.01
48517;BME280;34310;51.904;4.256;2024-03-02T08:18:25;100027.78;;;16.13;57.92
48517;BME280;34310;51.904;4.256;2024-03-02T08:20:52;100028.59;;;16.11;58.09
48517;BME280;34310;51.904;4.256;2024-03-02T08:23:26;100033.03;;;16.14;58.19
48517;BME280;34310;51.904;4.256;2024-03-02T08:25:53;100011.94;;;16.06;58.19
48517;BME280;34310;51.904;4.256;2024-03-02T08:28:20;100024.97;;;16.06;58.38
48517;BME280;34310;51.904;4.256;2024-03-02T08:30:46;100022.97;;;15.99;58.57
48517;BME280;34310;51.904;4.256;2024-03-02T08:33:13;100022.97;;;15.99;58.33
48517;BME280;34310;51.904;4.256;2024-03-02T08:35:39;100021.97;;;15.96;58.53
48517;BME280;34310;51.904;4.256;2024-03-02T08:38:06;100013.19;;;15.92;58.46
48517;BME280;34310;51.904;4.256;2024-03-02T08:40:33;100017.56;;;15.93;58.73
48517;BME280;34310;51.904;4.256;2024-03-02T08:42:59;100011.31;;;15.90;58.57
48517;BME280;34310;51.904;4.256;2024-03-02T08:45:26;100016.53;;;15.90;58.90
48517;BME280;34310;51.904;4.256;2024-03-02T08:47:54;100009.50;;;15.87;59.01
48517;BME280;34310;51.904;4.256;2024-03-02T08:50:21;100009.44;;;15.86;59.06
48517;BME280;34310;51.904;4.256;2024-03-02T08:52:50;100010.16;;;15.82;59.11
48517;BME280;34310;51.904;4.256;2024-03-02T08:55:19;100026.72;;;15.84;59.18
48517;BME280;34310;51.904;4.256;2024-03-02T08:57:45;100030.94;;;15.80;59.10
48517;BME280;34310;51.904;4.256;2024-03-02T09:00:12;100038.75;;;15.80;59.08
48517;BME280;34310;51.904;4.256;2024-03-02T09:02:39;100030.88;;;15.78;59.18
48517;BME280;34310;51.904;4.256;2024-03-02T09:05:06;100043.00;;;15.78;59.09
48517;BME280;34310;51.904;4.256;2024-03-02T09:07:32;100034.25;;;15.76;59.20
48517;BME280;34310;51.904;4.256;2024-03-02T09:09:59;100042.84;;;15.73;59.38
48517;BME280;34310;51.904;4.256;2024-03-02T09:12:26;100037.63;;;15.73;59.25
48517;BME280;34310;51.904;4.256;2024-03-02T09:14:52;100048.94;;;15.74;59.25
48517;BME280;34310;51.904;4.256;2024-03-02T09:17:19;100045.44;;;15.73;59.25
48517;BME280;34310;51.904;4.256;2024-03-02T09:19:46;100040.91;;;15.68;59.50
48517;BME280;34310;51.904;4.256;2024-03-02T09:22:12;100048.81;;;15.71;59.65
48517;BME280;34310;51.904;4.256;2024-03-02T09:24:39;100049.53;;;15.67;59.51
48517;BME280;34310;51.904;4.256;2024-03-02T09:27:05;100046.09;;;15.68;59.75
48517;BME280;34310;51.904;4.256;2024-03-02T09:29:32;100054.81;;;15.68;59.44
48517;BME280;34310;51.904;4.256;2024-03-02T09:31:58;100041.69;;;15.65;59.60
48517;BME280;34310;51.904;4.256;2024-03-02T09:34:28;100052.97;;;15.66;59.57
48517;BME280;34310;51.904;4.256;2024-03-02T09:36:54;100045.16;;;15.66;59.72
48517;BME280;34310;51.904;4.256;2024-03-02T09:39:21;100053.81;;;15.65;59.68
48517;BME280;34310;51.904;4.256;2024-03-02T09:41:48;100045.88;;;15.62;59.69
48517;BME280;34310;51.904;4.256;2024-03-02T09:44:15;100062.44;;;15.64;59.93
48517;BME280;34310;51.904;4.256;2024-03-02T09:46:41;100047.44;;;15.58;59.59
48517;BME280;34310;51.904;4.256;2024-03-02T09:49:08;100053.69;;;15.62;59.67
48517;BME280;34310;51.904;4.256;2024-03-02T09:51:35;100062.44;;;15.64;59.89
48517;BME280;34310;51.904;4.256;2024-03-02T09:54:03;100066.69;;;15.62;59.80
48517;BME280;34310;51.904;4.256;2024-03-02T09:56:44;100063.84;;;15.57;59.93
48517;BME280;34310;51.904;4.256;2024-03-02T09:59:11;100064.09;;;15.62;60.00
48517;BME280;34310;51.904;4.256;2024-03-02T10:01:37;100064.00;;;15.60;60.10
48517;BME280;34310;51.904;4.256;2024-03-02T10:04:05;100051.88;;;15.61;60.01
48517;BME280;34310;51.904;4.256;2024-03-02T10:06:32;100056.28;;;15.62;59.84
48517;BME280;34310;51.904;4.256;2024-03-02T10:08:58;100037.19;;;15.61;60.15
48517;BME280;34310;51.904;4.256;2024-03-02T10:11:30;100032.59;;;15.56;60.10
48517;BME280;34310;51.904;4.256;2024-03-02T10:14:13;100036.22;;;15.59;60.23
48517;BME280;34310;51.904;4.256;2024-03-02T10:16:41;100035.31;;;15.59;60.20
48517;BME280;34310;51.904;4.256;2024-03-02T10:19:31;100035.31;;;15.59;60.46
48517;BME280;34310;51.904;4.256;2024-03-02T10:21:59;100038.66;;;15.56;60.07
48517;BME280;34310;51.904;4.256;2024-03-02T10:25:01;100033.53;;;15.58;60.40
48517;BME280;34310;51.904;4.256;2024-03-02T10:27:34;100029.25;;;15.58;60.27
48517;BME280;34310;51.904;4.256;2024-03-02T10:30:02;100036.22;;;15.59;60.41
48517;BME280;34310;51.904;4.256;2024-03-02T10:32:30;100036.28;;;15.61;60.32
48517;BME280;34310;51.904;4.256;2024-03-02T10:34:58;100038.00;;;15.60;60.23
48517;BME280;34310;51.904;4.256;2024-03-02T10:37:24;100022.31;;;15.59;60.44
48517;BME280;34310;51.904;4.256;2024-03-02T10:39:52;100026.78;;;15.61;60.23
48517;BME280;34310;51.904;4.256;2024-03-02T10:42:19;100022.47;;;15.62;60.21
48517;BME280;34310;51.904;4.256;2024-03-02T10:44:46;100028.63;;;15.64;60.17
48517;BME280;34310;51.904;4.256;2024-03-02T10:47:13;100014.66;;;15.62;60.40
48517;BME280;34310;51.904;4.256;2024-03-02T10:49:42;100024.19;;;15.61;60.47
48517;BME280;34310;51.904;4.256;2024-03-02T10:52:08;100025.19;;;15.65;60.21
48517;BME280;34310;51.904;4.256;2024-03-02T10:54:38;100026.00;;;15.64;60.44
48517;BME280;34310;51.904;4.256;2024-03-02T10:57:07;100029.56;;;15.66;60.43
48517;BME280;34310;51.904;4.256;2024-03-02T10:59:36;100021.75;;;15.66;60.36
48517;BME280;34310;51.904;4.256;2024-03-02T11:02:04;100018.31;;;15.67;60.47
48517;BME280;34310;51.904;4.256;2024-03-02T11:04:32;100020.09;;;15.68;60.41
48517;BME280;34310;51.904;4.256;2024-03-02T11:07:06;100030.56;;;15.69;60.18
48517;BME280;34310;51.904;4.256;2024-03-02T11:09:34;100032.22;;;15.67;60.45
48517;BME280;34310;51.904;4.256;2024-03-02T11:12:24;100027.06;;;15.69;60.29
48517;BME280;34310;51.904;4.256;2024-03-02T11:14:55;100022.63;;;15.66;60.27
48517;BME280;34310;51.904;4.256;2024-03-02T11:17:23;100021.81;;;15.67;60.32
48517;BME280;34310;51.904;4.256;2024-03-02T11:19:51;100014.00;;;15.67;60.20
48517;BME280;34310;51.904;4.256;2024-03-02T11:22:18;100025.28;;;15.68;60.31
48517;BME280;34310;51.904;4.256;2024-03-02T11:24:50;100014.00;;;15.67;60.40
48517;BME280;34310;51.904;4.256;2024-03-02T11:33:01;100026.19;;;15.68;60.14
48517;BME280;34310;51.904;4.256;2024-03-02T11:35:28;100013.06;;;15.65;60.21
48517;BME280;34310;51.904;4.256;2024-03-02T11:37:55;100011.22;;;15.63;60.10
48517;BME280;34310;51.904;4.256;2024-03-02T11:40:22;100005.97;;;15.61;60.56
48517;BME280;34310;51.904;4.256;2024-03-02T11:42:49;100009.31;;;15.59;60.46
48517;BME280;34310;51.904;4.256;2024-03-02T11:45:23;100012.72;;;15.58;60.36
48517;BME280;34310;51.904;4.256;2024-03-02T11:47:51;100005.03;;;15.61;60.45
48517;BME280;34310;51.904;4.256;2024-03-02T11:52:58;99998.91;;;15.59;60.53
48517;BME280;34310;51.904;4.256;2024-03-02T11:55:25;100003.22;;;15.58;60.35
48517;BME280;34310;51.904;4.256;2024-03-02T11:57:54;99988.34;;;15.56;60.45
48517;BME280;34310;51.904;4.256;2024-03-02T12:00:21;100000.63;;;15.58;60.60
48517;BME280;34310;51.904;4.256;2024-03-02T12:03:00;99987.53;;;15.57;60.69
48517;BME280;34310;51.904;4.256;2024-03-02T12:05:27;99981.38;;;15.55;60.52
48517;BME280;34310;51.904;4.256;2024-03-02T12:08:01;99977.94;;;15.56;60.53
48517;BME280;34310;51.904;4.256;2024-03-02T12:10:30;99977.06;;;15.55;60.40
48517;BME280;34310;51.904;4.256;2024-03-02T12:13:02;99963.34;;;15.59;60.66
48517;BME280;34310;51.904;4.256;2024-03-02T12:15:30;99966.00;;;15.61;60.83
48517;BME280;34310;51.904;4.256;2024-03-02T12:17:59;99955.63;;;15.61;60.48
48517;BME280;34310;51.904;4.256;2024-03-02T12:20:30;99942.59;;;15.61;60.58
48517;BME280;34310;51.904;4.256;2024-03-02T12:23:01;99944.50;;;15.65;60.65
48517;BME280;34310;51.904;4.256;2024-03-02T12:25:29;99941.06;;;15.66;60.58
48517;BME280;34310;51.904;4.256;2024-03-02T12:27:58;99948.09;;;15.68;60.34
48517;BME280;34310;51.904;4.256;2024-03-02T12:30:27;99949.03;;;15.70;60.40
48517;BME280;34310;51.904;4.256;2024-03-02T12:32:55;99941.19;;;15.69;60.23
48517;BME280;34310;51.904;4.256;2024-03-02T12:35:24;99948.22;;;15.71;60.17
48517;BME280;34310;51.904;4.256;2024-03-02T12:37:52;99949.16;;;15.73;60.32
48517;BME280;34310;51.904;4.256;2024-03-02T12:40:20;99946.59;;;15.75;60.16
48517;BME280;34310;51.904;4.256;2024-03-02T12:42:47;99933.53;;;15.73;60.43
48517;BME280;34310;51.904;4.256;2024-03-02T12:45:14;99939.69;;;15.75;59.87
48517;BME280;34310;51.904;4.256;2024-03-02T12:47:42;99938.91;;;15.78;60.25
48517;BME280;34310;51.904;4.256;2024-03-02T12:50:09;99938.06;;;15.79;60.22
48517;BME280;34310;51.904;4.256;2024-03-02T12:52:36;99937.22;;;15.80;60.03
48517;BME280;34310;51.904;4.256;2024-03-02T12:55:04;99936.34;;;15.79;60.16
48517;BME280;34310;51.904;4.256;2024-03-02T12:57:33;99931.94;;;15.77;60.08
48517;BME280;34310;51.904;4.256;2024-03-02T13:00:02;99931.03;;;15.76;60.06
48517;BME280;34310;51.904;4.256;2024-03-02T13:02:30;99937.06;;;15.75;60.18
48517;BME280;34310;51.904;4.256;2024-03-02T13:05:00;99934.47;;;15.75;60.23
48517;BME280;34310;51.904;4.256;2024-03-02T13:07:27;99936.25;;;15.76;60.09
48517;BME280;34310;51.904;4.256;2024-03-02T13:09:55;99931.78;;;15.72;60.23
48517;BME280;34310;51.904;4.256;2024-03-02T13:12:24;99930.88;;;15.72;60.12